Time;durP1;ratioP1;P1;durP2;ratioP2;P2;SDS_P1;SDS_P2;PMS_P1;PMS_P2;Temp;Humidity;BMP_temperature;BMP_pressure;BME280_temperature;BME280_humidity;BME280_pressure;Samples;Min_cycle;Max_cycle;Signal;HPM_P1;HPM_P2
2023/11/08 00:01:38;;;;;;;;;;;9.60;85.90;;;;;;5092578;28;19946;-66
2023/11/08 00:04:11;;;;;;;;;;;9.60;85.90;;;;;;5097707;28;20347;-66
2023/11/08 00:06:44;;;;;;;;;;;9.60;85.90;;;;;;5100539;28;19980;-67
2023/11/08 00:09:17;;;;;;;;;;;9.60;85.90;;;;;;5092731;28;19980;-66
2023/11/08 00:11:50;;;;;;;;;;;9.60;85.90;;;;;;5089960;28;19928;-66
2023/11/08 00:14:24;;;;;;;;;;;9.50;86.00;;;;;;5097982;28;19935;-66
2023/11/08 00:16:58;;;;;;;;;;;9.50;86.10;;;;;;5094634;28;19932;-66
2023/11/08 00:19:31;;;;;;;;;;;9.40;86.10;;;;;;5095126;28;19931;-65
2023/11/08 00:22:04;;;;;;;;;;;9.40;86.20;;;;;;5095994;28;19927;-66
2023/11/08 00:24:38;;;;;;;;;;;9.50;86.30;;;;;;5098663;28;19982;-65
2023/11/08 00:27:11;;;;;;;;;;;9.50;86.40;;;;;;5088962;28;19942;-65
2023/11/08 00:29:45;;;;;;;;;;;9.50;86.40;;;;;;5095321;28;20002;-64
2023/11/08 00:32:21;;;;;;;;;;;9.40;86.30;;;;;;5096716;28;19930;-65
2023/11/08 00:34:54;;;;;;;;;;;9.40;86.50;;;;;;5097263;28;19932;-64
2023/11/08 00:37:27;;;;;;;;;;;9.50;86.30;;;;;;5095576;28;20416;-64
2023/11/08 00:40:00;;;;;;;;;;;9.50;86.30;;;;;;5097863;28;20500;-66
2023/11/08 00:42:33;;;;;;;;;;;9.50;86.20;;;;;;5097387;28;19924;-65
2023/11/08 00:45:08;;;;;;;;;;;9.50;86.20;;;;;;5092687;28;19932;-65
2023/11/08 00:47:43;;;;;;;;;;;9.50;86.20;;;;;;5088449;28;20283;-65
2023/11/08 00:50:16;;;;;;;;;;;9.50;86.20;;;;;;5098484;28;20453;-64
2023/11/08 00:52:53;;;;;;;;;;;9.50;86.20;;;;;;5096262;28;19931;-66
2023/11/08 00:55:26;;;;;;;;;;;9.40;86.20;;;;;;5096170;28;20340;-64
2023/11/08 00:57:59;;;;;;;;;;;9.50;86.10;;;;;;5081998;28;20272;-65
2023/11/08 01:00:33;;;;;;;;;;;9.40;86.10;;;;;;5111111;28;20014;-64
2023/11/08 01:03:07;;;;;;;;;;;9.50;86.40;;;;;;5093637;28;20756;-64
2023/11/08 01:05:40;;;;;;;;;;;9.50;86.00;;;;;;5108075;28;20365;-63
2023/11/08 01:08:14;;;;;;;;;;;9.50;85.90;;;;;;5096436;28;19931;-65
2023/11/08 01:10:41;;;;;;;;;;;9.40;85.80;;;;;;5097190;28;19928;-66
2023/11/08 01:13:14;;;;;;;;;;;9.30;86.00;;;;;;5096003;28;19964;-65
2023/11/08 01:15:48;;;;;;;;;;;9.30;86.00;;;;;;5096207;28;20391;-66
2023/11/08 01:18:22;;;;;;;;;;;9.30;86.00;;;;;;5096390;28;19923;-73
2023/11/08 01:20:55;;;;;;;;;;;9.30;86.00;;;;;;5096853;28;19929;-73
2023/11/08 01:23:28;;;;;;;;;;;9.30;85.80;;;;;;5097426;28;20027;-73
2023/11/08 01:26:02;;;;;;;;;;;9.20;85.80;;;;;;5096599;28;19930;-72
2023/11/08 01:28:36;;;;;;;;;;;9.20;85.80;;;;;;5096782;28;19955;-71
2023/11/08 01:31:10;;;;;;;;;;;9.20;85.80;;;;;;5095930;28;19931;-72
2023/11/08 01:33:44;;;;;;;;;;;9.20;85.80;;;;;;5083368;28;19935;-72
2023/11/08 01:36:17;;;;;;;;;;;9.20;85.60;;;;;;5099464;28;19942;-72
2023/11/08 01:38:50;;;;;;;;;;;9.20;85.60;;;;;;5100170;28;20410;-72
2023/11/08 01:41:24;;;;;;;;;;;9.20;85.50;;;;;;5101767;28;19938;-71
2023/11/08 01:43:59;;;;;;;;;;;9.20;85.50;;;;;;5100506;28;19927;-72
2023/11/08 01:46:35;;;;;;;;;;;9.20;85.40;;;;;;5115487;27;19935;-72
2023/11/08 01:49:09;;;;;;;;;;;9.20;85.40;;;;;;5094028;28;19984;-72
2023/11/08 01:51:42;;;;;;;;;;;9.20;85.40;;;;;;5098394;28;20015;-73
2023/11/08 01:54:15;;;;;;;;;;;9.20;85.40;;;;;;5098536;27;19924;-74
2023/11/08 01:56:48;;;;;;;;;;;9.20;85.40;;;;;;5099120;28;20436;-72
2023/11/08 01:59:24;;;;;;;;;;;9.20;85.50;;;;;;5099375;28;19924;-73
2023/11/08 02:01:59;;;;;;;;;;;9.20;85.50;;;;;;5115186;27;19932;-71
2023/11/08 02:04:32;;;;;;;;;;;9.20;85.50;;;;;;5085089;28;20295;-73
2023/11/08 02:07:06;;;;;;;;;;;9.20;85.40;;;;;;5100285;27;19932;-72
2023/11/08 02:09:39;;;;;;;;;;;9.20;85.40;;;;;;5100347;28;19932;-72
2023/11/08 02:12:12;;;;;;;;;;;9.20;85.40;;;;;;5093429;28;19925;-74
2023/11/08 02:15:01;;;;;;;;;;;9.20;85.40;;;;;;5099054;28;19925;-72
2023/11/08 02:17:35;;;;;;;;;;;9.20;85.50;;;;;;5099566;28;19989;-72
2023/11/08 02:20:10;;;;;;;;;;;9.20;85.40;;;;;;5097775;28;19928;-72
2023/11/08 02:22:43;;;;;;;;;;;9.20;85.50;;;;;;5093442;28;19932;-74
2023/11/08 02:25:18;;;;;;;;;;;9.10;85.50;;;;;;5096640;28;19945;-71
2023/11/08 02:27:51;;;;;;;;;;;9.10;85.50;;;;;;5100532;27;20014;-68
2023/11/08 02:30:25;;;;;;;;;;;9.10;85.30;;;;;;5096285;28;19924;-72
2023/11/08 02:32:58;;;;;;;;;;;9.20;85.40;;;;;;5101576;27;19924;-72
2023/11/08 02:35:31;;;;;;;;;;;9.20;85.30;;;;;;5099913;28;19928;-72
2023/11/08 02:38:06;;;;;;;;;;;9.20;85.40;;;;;;5101584;28;19931;-72
2023/11/08 02:40:40;;;;;;;;;;;9.20;85.30;;;;;;5099012;27;19928;-75
2023/11/08 02:43:14;;;;;;;;;;;9.10;85.40;;;;;;5100730;28;19955;-77
2023/11/08 02:45:47;;;;;;;;;;;9.20;85.30;;;;;;5100935;28;19924;-74
2023/11/08 02:48:21;;;;;;;;;;;9.20;85.30;;;;;;5097671;28;19923;-75
2023/11/08 02:50:56;;;;;;;;;;;9.20;85.20;;;;;;5115952;27;19934;-76
2023/11/08 02:53:29;;;;;;;;;;;9.10;85.20;;;;;;5101531;28;19925;-76
2023/11/08 02:56:04;;;;;;;;;;;9.10;85.20;;;;;;5098571;28;19924;-75
2023/11/08 02:58:37;;;;;;;;;;;9.10;85.20;;;;;;5100331;28;19934;-74
2023/11/08 03:01:10;;;;;;;;;;;9.10;85.20;;;;;;5097345;28;20351;-76
2023/11/08 03:03:43;;;;;;;;;;;9.10;85.20;;;;;;5100678;28;19932;-75
2023/11/08 03:06:19;;;;;;;;;;;9.10;85.40;;;;;;5099575;28;20397;-74
2023/11/08 03:08:53;;;;;;;;;;;9.10;85.40;;;;;;5098541;28;19924;-74
2023/11/08 03:11:27;;;;;;;;;;;9.20;85.40;;;;;;5097379;28;19963;-77
2023/11/08 03:14:07;;;;;;;;;;;9.20;85.30;;;;;;5099313;28;20366;-73
2023/11/08 03:16:42;;;;;;;;;;;9.10;85.20;;;;;;5100777;28;19952;-74
2023/11/08 03:19:15;;;;;;;;;;;9.10;85.40;;;;;;5102245;28;19947;-74
2023/11/08 03:21:49;;;;;;;;;;;9.10;85.40;;;;;;5102192;28;19928;-74
2023/11/08 03:24:22;;;;;;;;;;;9.10;85.30;;;;;;5097170;28;19939;-74
2023/11/08 03:26:56;;;;;;;;;;;9.10;85.40;;;;;;5099751;28;19931;-74
2023/11/08 03:29:30;;;;;;;;;;;9.10;85.40;;;;;;5099778;28;19924;-74
2023/11/08 03:32:03;;;;;;;;;;;9.10;85.50;;;;;;5100486;28;19977;-74
2023/11/08 03:34:38;;;;;;;;;;;9.10;85.40;;;;;;5099831;27;19928;-75
2023/11/08 03:37:11;;;;;;;;;;;9.10;85.40;;;;;;5097190;28;19935;-78
2023/11/08 03:39:45;;;;;;;;;;;9.10;85.40;;;;;;5090621;28;19967;-67
2023/11/08 03:42:20;;;;;;;;;;;9.10;85.40;;;;;;5096895;28;19932;-66
2023/11/08 03:44:53;;;;;;;;;;;9.10;85.40;;;;;;5098995;28;20019;-64
2023/11/08 03:47:26;;;;;;;;;;;9.10;85.40;;;;;;5096856;28;19924;-64
2023/11/08 03:49:59;;;;;;;;;;;9.20;85.30;;;;;;5094185;28;20029;-65
2023/11/08 03:52:26;;;;;;;;;;;9.10;85.30;;;;;;5097148;28;19930;-65
2023/11/08 03:55:00;;;;;;;;;;;9.10;85.40;;;;;;5099511;28;19967;-64
2023/11/08 03:57:36;;;;;;;;;;;9.10;85.40;;;;;;5089801;28;20446;-64
2023/11/08 04:00:11;;;;;;;;;;;9.10;85.40;;;;;;5095177;28;20299;-64
2023/11/08 04:02:44;;;;;;;;;;;9.10;85.40;;;;;;5098706;28;20420;-65
2023/11/08 04:05:17;;;;;;;;;;;9.10;85.30;;;;;;5096018;28;20347;-65
2023/11/08 04:07:50;;;;;;;;;;;9.10;85.40;;;;;;5098017;28;19924;-65
2023/11/08 04:10:23;;;;;;;;;;;9.10;85.30;;;;;;5098933;28;19941;-65
2023/11/08 04:12:57;;;;;;;;;;;9.10;85.30;;;;;;5097229;28;19924;-66
2023/11/08 04:15:24;;;;;;;;;;;9.10;85.40;;;;;;5095152;28;19932;-65
2023/11/08 04:17:57;;;;;;;;;;;9.10;85.20;;;;;;5098064;28;20411;-66
2023/11/08 04:20:30;;;;;;;;;;;9.10;85.20;;;;;;5096410;28;19977;-65
2023/11/08 04:23:03;;;;;;;;;;;9.10;85.20;;;;;;5095584;28;19946;-67
2023/11/08 04:25:37;;;;;;;;;;;9.10;85.20;;;;;;5099373;28;19928;-64
2023/11/08 04:28:06;;;;;;;;;;;9.10;85.20;;;;;;5095967;28;19927;-64
2023/11/08 04:30:39;;;;;;;;;;;9.10;85.20;;;;;;5097671;28;19977;-64
2023/11/08 04:33:12;;;;;;;;;;;9.10;85.20;;;;;;5095471;28;19969;-64
2023/11/08 04:35:45;;;;;;;;;;;9.10;85.30;;;;;;5098219;28;19924;-64
2023/11/08 04:38:19;;;;;;;;;;;9.10;85.30;;;;;;5098042;28;19924;-64
2023/11/08 04:40:46;;;;;;;;;;;9.10;85.30;;;;;;5099244;28;20347;-66
2023/11/08 04:43:21;;;;;;;;;;;9.10;85.10;;;;;;5095455;28;19928;-65
2023/11/08 04:45:54;;;;;;;;;;;9.10;85.20;;;;;;5096374;28;19932;-66
2023/11/08 04:48:27;;;;;;;;;;;9.10;85.10;;;;;;5097440;28;19931;-64
2023/11/08 04:51:00;;;;;;;;;;;9.10;85.10;;;;;;5093914;28;19924;-65
2023/11/08 04:53:33;;;;;;;;;;;9.10;85.20;;;;;;5097738;28;19924;-64
2023/11/08 04:56:06;;;;;;;;;;;9.10;85.10;;;;;;5096741;28;19977;-65
2023/11/08 04:58:42;;;;;;;;;;;9.10;85.10;;;;;;5097655;28;19932;-64
2023/11/08 05:01:15;;;;;;;;;;;9.00;85.20;;;;;;5092001;28;19924;-65
2023/11/08 05:03:48;;;;;;;;;;;9.10;85.20;;;;;;5098331;28;19923;-63
2023/11/08 05:06:21;;;;;;;;;;;9.10;85.10;;;;;;5097683;28;19931;-66
2023/11/08 05:08:54;;;;;;;;;;;9.10;85.20;;;;;;5093253;28;19930;-66
2023/11/08 05:11:27;;;;;;;;;;;9.10;85.40;;;;;;5095284;28;19954;-63
2023/11/08 05:14:03;;;;;;;;;;;9.10;85.20;;;;;;5100435;27;20008;-64
2023/11/08 05:16:36;;;;;;;;;;;9.10;85.30;;;;;;5098106;28;20028;-64
2023/11/08 05:19:09;;;;;;;;;;;9.00;85.20;;;;;;5089733;28;19955;-64
2023/11/08 05:21:43;;;;;;;;;;;9.00;85.30;;;;;;5100013;28;19928;-64
2023/11/08 05:24:17;;;;;;;;;;;9.10;85.30;;;;;;5098932;28;20379;-64
2023/11/08 05:26:50;;;;;;;;;;;9.00;85.40;;;;;;5102021;28;20307;-64
2023/11/08 05:29:25;;;;;;;;;;;9.10;85.40;;;;;;5100270;28;19931;-64
2023/11/08 05:31:58;;;;;;;;;;;9.00;85.30;;;;;;5100698;28;19927;-64
2023/11/08 05:34:26;;;;;;;;;;;9.00;85.20;;;;;;5099336;28;19938;-63
2023/11/08 05:36:59;;;;;;;;;;;9.00;85.20;;;;;;5099833;27;19932;-64
2023/11/08 05:39:32;;;;;;;;;;;9.00;85.40;;;;;;5101995;28;19927;-64
2023/11/08 05:42:05;;;;;;;;;;;9.00;85.30;;;;;;5099137;28;20027;-64
2023/11/08 05:44:42;;;;;;;;;;;9.00;85.40;;;;;;5100414;28;19924;-63
2023/11/08 05:47:15;;;;;;;;;;;9.00;85.40;;;;;;5098438;28;20290;-65
2023/11/08 05:49:49;;;;;;;;;;;8.90;85.40;;;;;;5101151;28;20387;-64
2023/11/08 05:52:22;;;;;;;;;;;9.00;85.40;;;;;;5099513;28;19935;-64
2023/11/08 05:54:55;;;;;;;;;;;9.00;85.40;;;;;;5094930;28;19928;-66
2023/11/08 05:57:28;;;;;;;;;;;9.00;85.40;;;;;;5101838;28;20039;-65
2023/11/08 06:00:10;;;;;;;;;;;9.00;85.60;;;;;;5092718;28;19932;-68
2023/11/08 06:02:43;;;;;;;;;;;9.00;85.70;;;;;;5098166;27;19932;-69
2023/11/08 06:05:11;;;;;;;;;;;9.00;85.60;;;;;;5097677;28;20492;-67
2023/11/08 06:07:44;;;;;;;;;;;8.90;85.50;;;;;;5100350;28;20379;-68
2023/11/08 06:10:12;;;;;;;;;;;8.90;85.70;;;;;;5099176;28;19932;-68
2023/11/08 06:12:46;;;;;;;;;;;8.90;85.70;;;;;;5102404;28;19923;-68
2023/11/08 06:15:20;;;;;;;;;;;9.00;85.60;;;;;;5097800;27;20467;-68
2023/11/08 06:17:54;;;;;;;;;;;9.00;85.80;;;;;;5097666;28;19924;-67
2023/11/08 06:20:27;;;;;;;;;;;8.90;85.80;;;;;;5100242;28;20295;-68
2023/11/08 06:23:02;;;;;;;;;;;9.00;85.80;;;;;;5096625;27;19924;-66
2023/11/08 06:25:35;;;;;;;;;;;9.00;85.80;;;;;;5098659;28;20272;-68
2023/11/08 06:28:08;;;;;;;;;;;9.00;85.80;;;;;;5100057;27;20299;-68
2023/11/08 06:30:43;;;;;;;;;;;8.90;85.80;;;;;;5100047;28;20437;-67
2023/11/08 06:33:17;;;;;;;;;;;9.00;85.80;;;;;;5099013;28;23507;-67
2023/11/08 06:35:50;;;;;;;;;;;9.00;85.70;;;;;;5100108;28;19934;-67
2023/11/08 06:38:23;;;;;;;;;;;9.00;85.70;;;;;;5098182;28;19981;-69
2023/11/08 06:40:50;;;;;;;;;;;9.00;85.80;;;;;;5099788;28;19928;-67
2023/11/08 06:43:23;;;;;;;;;;;9.00;85.80;;;;;;5100328;27;19935;-68
2023/11/08 06:45:58;;;;;;;;;;;9.00;85.80;;;;;;5099724;28;20014;-67
2023/11/08 06:48:31;;;;;;;;;;;9.00;85.80;;;;;;5098946;28;19928;-68
2023/11/08 06:51:05;;;;;;;;;;;9.00;85.80;;;;;;5099970;28;19931;-67
2023/11/08 06:53:38;;;;;;;;;;;9.00;85.80;;;;;;5097222;28;19933;-68
2023/11/08 06:56:12;;;;;;;;;;;9.00;85.80;;;;;;5100486;28;19932;-67
2023/11/08 06:58:46;;;;;;;;;;;9.00;85.90;;;;;;5102503;28;19931;-67
2023/11/08 07:01:21;;;;;;;;;;;9.00;85.90;;;;;;5093004;28;19973;-68
2023/11/08 07:03:54;;;;;;;;;;;9.00;86.00;;;;;;5098681;28;20382;-69
2023/11/08 07:06:27;;;;;;;;;;;9.00;86.00;;;;;;5100113;28;19985;-69
2023/11/08 07:09:00;;;;;;;;;;;9.00;86.10;;;;;;5100255;28;19947;-68
2023/11/08 07:11:33;;;;;;;;;;;9.00;86.10;;;;;;5099113;28;20001;-68
2023/11/08 07:14:06;;;;;;;;;;;9.00;86.10;;;;;;5094193;28;19931;-68
2023/11/08 07:16:41;;;;;;;;;;;9.00;86.20;;;;;;5096405;28;19943;-66
2023/11/08 07:19:14;;;;;;;;;;;9.00;86.20;;;;;;5095495;28;19932;-68
2023/11/08 07:21:41;;;;;;;;;;;9.00;86.10;;;;;;5098359;28;19935;-68
2023/11/08 07:24:14;;;;;;;;;;;9.00;86.20;;;;;;5097353;28;19981;-68
2023/11/08 07:26:49;;;;;;;;;;;9.00;86.20;;;;;;5098219;28;20295;-68
2023/11/08 07:29:23;;;;;;;;;;;9.00;86.20;;;;;;5096117;28;19924;-68
2023/11/08 07:31:58;;;;;;;;;;;9.00;86.20;;;;;;5099802;28;19967;-67
2023/11/08 07:34:32;;;;;;;;;;;9.10;86.20;;;;;;5097378;27;19924;-67
2023/11/08 07:37:05;;;;;;;;;;;9.10;86.20;;;;;;5099451;28;19927;-67
2023/11/08 07:39:39;;;;;;;;;;;9.10;86.10;;;;;;5100437;28;19928;-67
2023/11/08 07:42:12;;;;;;;;;;;9.20;86.10;;;;;;5099639;27;19932;-67
2023/11/08 07:44:46;;;;;;;;;;;9.10;86.10;;;;;;5097902;27;19930;-67
2023/11/08 07:47:21;;;;;;;;;;;9.20;86.00;;;;;;5098609;28;20007;-68
2023/11/08 07:49:54;;;;;;;;;;;9.20;86.00;;;;;;5096255;27;20015;-67
2023/11/08 07:52:27;;;;;;;;;;;9.10;86.00;;;;;;5099335;27;19981;-68
2023/11/08 07:55:00;;;;;;;;;;;9.10;86.10;;;;;;5095825;28;19970;-67
2023/11/08 07:57:33;;;;;;;;;;;9.20;86.20;;;;;;5099984;28;19941;-69
2023/11/08 08:00:12;;;;;;;;;;;9.20;86.20;;;;;;5096394;28;19936;-68
2023/11/08 08:02:48;;;;;;;;;;;9.20;86.30;;;;;;5094092;28;20396;-67
2023/11/08 08:05:21;;;;;;;;;;;9.20;86.30;;;;;;5097699;28;19924;-68
2023/11/08 08:07:54;;;;;;;;;;;9.20;86.20;;;;;;5097004;28;19932;-68
2023/11/08 08:10:31;;;;;;;;;;;9.30;86.20;;;;;;5098735;27;19932;-68
2023/11/08 08:13:04;;;;;;;;;;;9.30;86.00;;;;;;5098141;28;19932;-67
2023/11/08 08:15:37;;;;;;;;;;;9.30;86.00;;;;;;5098992;28;19923;-68
2023/11/08 08:18:18;;;;;;;;;;;9.20;85.90;;;;;;5097738;28;19924;-64
2023/11/08 08:20:51;;;;;;;;;;;9.30;85.90;;;;;;5092649;28;19997;-65
2023/11/08 08:23:24;;;;;;;;;;;9.30;85.90;;;;;;5098640;28;20409;-65
2023/11/08 08:25:57;;;;;;;;;;;9.30;85.80;;;;;;5100560;28;20389;-67
2023/11/08 08:28:34;;;;;;;;;;;9.40;85.80;;;;;;5098288;28;19939;-65
2023/11/08 08:31:07;;;;;;;;;;;9.40;85.70;;;;;;5097714;28;19931;-65
2023/11/08 08:33:42;;;;;;;;;;;9.60;85.50;;;;;;5099518;28;20371;-65
2023/11/08 08:36:16;;;;;;;;;;;9.60;85.20;;;;;;5096700;28;19983;-65
2023/11/08 08:38:50;;;;;;;;;;;9.70;85.10;;;;;;5094478;28;19926;-65
2023/11/08 08:41:23;;;;;;;;;;;9.80;84.70;;;;;;5098764;28;19988;-65
2023/11/08 08:43:57;;;;;;;;;;;9.70;84.70;;;;;;5097454;28;20018;-65
2023/11/08 08:46:30;;;;;;;;;;;9.80;84.70;;;;;;5099127;28;19971;-65
2023/11/08 08:49:05;;;;;;;;;;;9.90;84.60;;;;;;5100746;28;19928;-65
2023/11/08 08:51:38;;;;;;;;;;;10.00;84.30;;;;;;5102517;28;20451;-65
2023/11/08 08:54:11;;;;;;;;;;;9.90;83.80;;;;;;5102778;28;20396;-65
2023/11/08 08:56:46;;;;;;;;;;;9.90;83.90;;;;;;5099189;28;19932;-64
2023/11/08 08:59:19;;;;;;;;;;;10.10;83.60;;;;;;5102190;28;19931;-67
2023/11/08 09:01:52;;;;;;;;;;;10.10;83.40;;;;;;5102806;28;20291;-65
2023/11/08 09:04:27;;;;;;;;;;;10.10;83.20;;;;;;5100013;28;19928;-64
2023/11/08 09:07:02;;;;;;;;;;;10.10;83.20;;;;;;5102833;27;19934;-66
2023/11/08 09:09:35;;;;;;;;;;;10.10;82.70;;;;;;5101319;28;19924;-66
2023/11/08 09:12:08;;;;;;;;;;;10.20;82.40;;;;;;5100582;28;19936;-66
2023/11/08 09:14:48;;;;;;;;;;;10.30;82.30;;;;;;5100778;28;19959;-66
2023/11/08 09:17:23;;;;;;;;;;;10.30;81.80;;;;;;5100420;28;19927;-65
2023/11/08 09:19:58;;;;;;;;;;;10.30;81.90;;;;;;5099239;28;19991;-65
2023/11/08 09:22:31;;;;;;;;;;;10.40;81.40;;;;;;5101435;28;19976;-65
2023/11/08 09:25:08;;;;;;;;;;;10.40;81.30;;;;;;5101788;27;19946;-66
2023/11/08 09:27:42;;;;;;;;;;;10.40;81.00;;;;;;5103948;28;19973;-65
2023/11/08 09:30:15;;;;;;;;;;;10.50;80.70;;;;;;5098781;28;19935;-73
2023/11/08 09:32:50;;;;;;;;;;;10.50;80.80;;;;;;5100876;28;19928;-74
2023/11/08 09:35:25;;;;;;;;;;;10.60;80.70;;;;;;5098177;27;20010;-74
2023/11/08 09:38:05;;;;;;;;;;;10.60;80.10;;;;;;5103120;28;19946;-73
2023/11/08 09:40:38;;;;;;;;;;;10.60;79.60;;;;;;5101213;28;19927;-75
2023/11/08 09:43:11;;;;;;;;;;;10.70;79.60;;;;;;5101691;27;19943;-75
2023/11/08 09:45:45;;;;;;;;;;;10.70;79.60;;;;;;5101094;28;20054;-74
2023/11/08 09:48:25;;;;;;;;;;;10.80;79.50;;;;;;5100843;28;19963;-74
2023/11/08 09:51:00;;;;;;;;;;;10.80;79.00;;;;;;5101597;28;19930;-74
2023/11/08 09:53:34;;;;;;;;;;;10.90;78.60;;;;;;5100658;28;20031;-74
2023/11/08 09:56:08;;;;;;;;;;;10.90;78.30;;;;;;5100933;28;19947;-73
2023/11/08 09:58:42;;;;;;;;;;;10.90;78.40;;;;;;5100624;27;19928;-75
2023/11/08 10:01:26;;;;;;;;;;;10.90;78.00;;;;;;5101785;28;19965;-75
2023/11/08 10:03:59;;;;;;;;;;;11.00;78.20;;;;;;5094823;27;19929;-74
2023/11/08 10:06:35;;;;;;;;;;;11.00;78.20;;;;;;5096923;28;19924;-74
2023/11/08 10:09:11;;;;;;;;;;;11.10;78.00;;;;;;5099590;27;20301;-73
2023/11/08 10:11:48;;;;;;;;;;;11.10;78.00;;;;;;5101366;28;19932;-73
2023/11/08 10:14:31;;;;;;;;;;;11.10;77.60;;;;;;5101978;28;19934;-73
2023/11/08 10:17:06;;;;;;;;;;;11.00;77.30;;;;;;5102606;28;19932;-74
2023/11/08 10:19:40;;;;;;;;;;;11.10;77.20;;;;;;5113944;27;20380;-74
2023/11/08 10:22:22;;;;;;;;;;;11.10;77.20;;;;;;5097955;28;20002;-73
2023/11/08 10:24:56;;;;;;;;;;;11.10;76.80;;;;;;5103748;28;19924;-73
2023/11/08 10:27:30;;;;;;;;;;;11.20;76.80;;;;;;5100003;28;20355;-73
2023/11/08 10:30:12;;;;;;;;;;;11.20;76.80;;;;;;5099747;27;20414;-75
2023/11/08 10:32:46;;;;;;;;;;;11.20;76.70;;;;;;5100282;28;19959;-74
2023/11/08 10:35:21;;;;;;;;;;;11.20;76.30;;;;;;5098593;28;19931;-73
2023/11/08 10:37:56;;;;;;;;;;;11.20;76.20;;;;;;5099210;28;19932;-61
2023/11/08 10:40:31;;;;;;;;;;;11.10;75.80;;;;;;5099124;28;20386;-67
2023/11/08 10:43:04;;;;;;;;;;;11.10;75.60;;;;;;5099274;28;20010;-67
2023/11/08 10:45:38;;;;;;;;;;;11.10;75.60;;;;;;5100292;28;20401;-67
2023/11/08 10:48:11;;;;;;;;;;;11.20;75.50;;;;;;5100749;28;19928;-66
2023/11/08 10:50:47;;;;;;;;;;;11.30;75.80;;;;;;5100107;27;20018;-67
2023/11/08 10:53:22;;;;;;;;;;;11.30;75.70;;;;;;5096384;28;19931;-66
2023/11/08 10:55:58;;;;;;;;;;;11.20;75.50;;;;;;5098349;28;20376;-67
2023/11/08 10:58:32;;;;;;;;;;;11.20;75.20;;;;;;5098772;28;19963;-68
2023/11/08 11:01:06;;;;;;;;;;;11.10;75.50;;;;;;5096572;27;19951;-66
2023/11/08 11:03:42;;;;;;;;;;;11.10;75.50;;;;;;5100463;28;19924;-66
2023/11/08 11:06:16;;;;;;;;;;;11.10;75.20;;;;;;5096324;28;19935;-66
2023/11/08 11:08:54;;;;;;;;;;;11.10;75.10;;;;;;5098269;27;19931;-68
2023/11/08 11:11:28;;;;;;;;;;;11.10;75.00;;;;;;5099475;28;19951;-66
2023/11/08 11:14:07;;;;;;;;;;;11.10;74.70;;;;;;5100124;28;19934;-66
2023/11/08 11:16:44;;;;;;;;;;;11.10;75.10;;;;;;5098236;28;20410;-66
2023/11/08 11:19:18;;;;;;;;;;;11.10;75.10;;;;;;5097003;27;19930;-66
2023/11/08 11:21:53;;;;;;;;;;;11.10;75.20;;;;;;5096414;28;19956;-67
2023/11/08 11:24:42;;;;;;;;;;;11.10;75.00;;;;;;5100774;28;19924;-66
2023/11/08 11:27:34;;;;;;;;;;;11.20;75.30;;;;;;5099051;27;19935;-66
2023/11/08 11:30:27;;;;;;;;;;;11.20;75.30;;;;;;5099164;27;19935;-66
2023/11/08 11:33:00;;;;;;;;;;;11.20;75.00;;;;;;5100726;28;19931;-67
2023/11/08 11:35:52;;;;;;;;;;;11.20;74.80;;;;;;5097069;27;20018;-68
2023/11/08 11:38:26;;;;;;;;;;;11.20;74.90;;;;;;5096113;28;19967;-67
2023/11/08 11:41:20;;;;;;;;;;;11.20;74.60;;;;;;5099234;28;19994;-67
2023/11/08 11:43:53;;;;;;;;;;;11.10;74.90;;;;;;5097218;28;19952;-67
2023/11/08 11:46:29;;;;;;;;;;;11.20;74.90;;;;;;5096895;28;19924;-66
2023/11/08 11:49:11;;;;;;;;;;;11.20;74.80;;;;;;5113522;27;20326;-73
2023/11/08 11:51:45;;;;;;;;;;;11.30;74.80;;;;;;5095650;28;20458;-74
2023/11/08 11:54:18;;;;;;;;;;;11.30;74.90;;;;;;5098581;28;20427;-75
2023/11/08 11:56:53;;;;;;;;;;;11.30;74.70;;;;;;5098543;28;19924;-73
2023/11/08 11:59:27;;;;;;;;;;;11.40;74.40;;;;;;5098084;28;19928;-73
2023/11/08 12:02:00;;;;;;;;;;;11.30;74.20;;;;;;5098512;28;19999;-75
2023/11/08 12:04:34;;;;;;;;;;;11.40;74.30;;;;;;5098059;28;19928;-73
2023/11/08 12:07:08;;;;;;;;;;;11.40;74.60;;;;;;5093374;28;19928;-73
2023/11/08 12:09:42;;;;;;;;;;;11.40;74.30;;;;;;5097813;28;19931;-73
2023/11/08 12:12:26;;;;;;;;;;;11.50;74.20;;;;;;5098881;28;20005;-73
2023/11/08 12:15:12;;;;;;;;;;;11.40;74.20;;;;;;5099753;28;20001;-73
2023/11/08 12:17:48;;;;;;;;;;;11.40;74.40;;;;;;5098312;28;19932;-74
2023/11/08 12:20:24;;;;;;;;;;;11.40;74.20;;;;;;5096476;28;19963;-73
2023/11/08 12:22:57;;;;;;;;;;;11.30;74.50;;;;;;5096412;28;20402;-74
2023/11/08 12:25:32;;;;;;;;;;;11.30;74.60;;;;;;5096760;28;20379;-74
2023/11/08 12:28:07;;;;;;;;;;;11.30;74.50;;;;;;5098650;28;19931;-74
2023/11/08 12:30:44;;;;;;;;;;;11.30;74.40;;;;;;5095735;28;19928;-74
2023/11/08 12:33:18;;;;;;;;;;;11.30;74.40;;;;;;5097382;28;19930;-73
2023/11/08 12:35:51;;;;;;;;;;;11.40;74.10;;;;;;5096027;28;19924;-74
2023/11/08 12:38:25;;;;;;;;;;;11.40;74.10;;;;;;5096469;28;19938;-73
2023/11/08 12:41:04;;;;;;;;;;;11.40;74.10;;;;;;5095799;28;19936;-73
2023/11/08 12:43:39;;;;;;;;;;;11.40;74.10;;;;;;5097082;28;19928;-73
2023/11/08 12:46:14;;;;;;;;;;;11.40;74.40;;;;;;5098267;28;19932;-76
2023/11/08 12:48:55;;;;;;;;;;;11.40;74.50;;;;;;5098513;28;19959;-74
2023/11/08 12:51:29;;;;;;;;;;;11.40;74.60;;;;;;5097701;28;19935;-74
2023/11/08 12:54:02;;;;;;;;;;;11.50;74.80;;;;;;5111669;28;19932;-73
2023/11/08 12:56:36;;;;;;;;;;;11.50;74.80;;;;;;5099928;28;20125;-74
2023/11/08 12:59:12;;;;;;;;;;;11.50;74.80;;;;;;5099562;28;19934;-59
2023/11/08 13:01:45;;;;;;;;;;;11.60;74.50;;;;;;5097910;28;19927;-61
2023/11/08 13:04:23;;;;;;;;;;;11.40;74.10;;;;;;5096891;28;19924;-61
2023/11/08 13:06:56;;;;;;;;;;;11.40;74.50;;;;;;5094820;28;19975;-61
2023/11/08 13:09:32;;;;;;;;;;;11.40;74.50;;;;;;5093391;28;19932;-60
2023/11/08 13:12:06;;;;;;;;;;;11.40;74.20;;;;;;5097031;28;20399;-62
2023/11/08 13:14:40;;;;;;;;;;;11.40;74.40;;;;;;5097318;28;19928;-62
2023/11/08 13:17:13;;;;;;;;;;;11.40;74.40;;;;;;5098264;28;19978;-60
2023/11/08 13:20:06;;;;;;;;;;;11.40;74.10;;;;;;5098357;28;19924;-60
2023/11/08 13:22:39;;;;;;;;;;;11.50;74.00;;;;;;5097302;28;19923;-61
2023/11/08 13:25:12;;;;;;;;;;;11.50;74.30;;;;;;5096157;28;19924;-62
2023/11/08 13:27:47;;;;;;;;;;;11.50;74.20;;;;;;5094023;28;19930;-61
2023/11/08 13:30:22;;;;;;;;;;;11.50;74.10;;;;;;5094114;28;19928;-61
2023/11/08 13:32:55;;;;;;;;;;;11.40;74.40;;;;;;5100921;28;19938;-61
2023/11/08 13:35:28;;;;;;;;;;;11.40;74.30;;;;;;5101401;28;19924;-61
2023/11/08 13:38:03;;;;;;;;;;;11.40;74.40;;;;;;5099703;28;19966;-60
2023/11/08 13:40:36;;;;;;;;;;;11.50;74.00;;;;;;5101177;28;19985;-60
2023/11/08 13:43:09;;;;;;;;;;;11.50;74.20;;;;;;5099014;28;19930;-63
2023/11/08 13:45:44;;;;;;;;;;;11.50;74.00;;;;;;5101864;28;19928;-61
2023/11/08 13:48:17;;;;;;;;;;;11.50;74.20;;;;;;5101040;27;20030;-62
2023/11/08 13:50:51;;;;;;;;;;;11.40;74.40;;;;;;5101641;28;19980;-62
2023/11/08 13:53:24;;;;;;;;;;;11.40;74.40;;;;;;5101030;28;19944;-61
2023/11/08 13:55:57;;;;;;;;;;;11.40;74.20;;;;;;5098473;28;19932;-63
2023/11/08 13:58:31;;;;;;;;;;;11.40;74.50;;;;;;5103023;28;19924;-62
2023/11/08 14:01:08;;;;;;;;;;;11.40;74.40;;;;;;5098970;28;19956;-61
2023/11/08 14:03:41;;;;;;;;;;;11.40;74.60;;;;;;5097454;28;20243;-62
2023/11/08 14:06:14;;;;;;;;;;;11.40;74.60;;;;;;5101502;28;19928;-62
2023/11/08 14:08:47;;;;;;;;;;;11.40;74.90;;;;;;5098069;28;19939;-72
2023/11/08 14:11:20;;;;;;;;;;;11.40;74.80;;;;;;5090692;28;19934;-73
2023/11/08 14:13:53;;;;;;;;;;;11.30;74.90;;;;;;5102770;28;19934;-75
2023/11/08 14:16:29;;;;;;;;;;;11.30;75.00;;;;;;5100314;28;19936;-73
2023/11/08 14:19:08;;;;;;;;;;;11.30;75.40;;;;;;5098904;27;19923;-73
2023/11/08 14:21:41;;;;;;;;;;;11.30;75.50;;;;;;5100383;28;19927;-71
2023/11/08 14:24:15;;;;;;;;;;;11.30;75.60;;;;;;5096765;28;19928;-73
2023/11/08 14:26:41;;;;;;;;;;;11.20;75.50;;;;;;5101526;28;20014;-74
2023/11/08 14:29:16;;;;;;;;;;;11.20;75.80;;;;;;5095988;28;19935;-72
2023/11/08 14:31:51;;;;;;;;;;;11.20;75.60;;;;;;5098313;28;19931;-72
2023/11/08 14:34:24;;;;;;;;;;;11.20;75.90;;;;;;5095082;28;19936;-71
2023/11/08 14:36:58;;;;;;;;;;;11.20;75.80;;;;;;5100095;28;19928;-72
2023/11/08 14:39:30;;;;;;;;;;;11.20;75.90;;;;;;5099586;28;19977;-73
2023/11/08 14:42:04;;;;;;;;;;;11.20;75.90;;;;;;5097549;28;20315;-73
2023/11/08 14:44:38;;;;;;;;;;;11.20;76.20;;;;;;5112451;27;19928;-73
2023/11/08 14:47:12;;;;;;;;;;;11.20;76.00;;;;;;5098774;28;20386;-71
2023/11/08 14:49:46;;;;;;;;;;;11.10;76.00;;;;;;5100315;28;19974;-71
2023/11/08 14:52:20;;;;;;;;;;;11.20;76.10;;;;;;5099553;28;19978;-72
2023/11/08 14:54:52;;;;;;;;;;;11.10;76.10;;;;;;5099529;28;19963;-71
2023/11/08 14:57:26;;;;;;;;;;;11.10;76.30;;;;;;5101838;28;19935;-73
2023/11/08 14:59:59;;;;;;;;;;;11.10;76.30;;;;;;5101621;28;19949;-71
2023/11/08 15:02:34;;;;;;;;;;;11.10;76.20;;;;;;5100729;28;19931;-73
2023/11/08 15:05:08;;;;;;;;;;;11.10;76.20;;;;;;5103092;28;19924;-73